createdAt,value
2022-12-14T00:00:36.662Z,-2.90
2022-12-14T00:03:05.504Z,-2.90
2022-12-14T00:05:33.957Z,-3.00
2022-12-14T00:08:02.739Z,-3.00
2022-12-14T00:10:32.864Z,-3.00
2022-12-14T00:13:01.488Z,-3.00
2022-12-14T00:15:32.522Z,-3.00
2022-12-14T00:18:01.245Z,-3.00
2022-12-14T00:20:29.522Z,-3.00
2022-12-14T00:22:58.749Z,-3.00
2022-12-14T00:25:27.829Z,-3.00
2022-12-14T00:27:57.126Z,-3.00
2022-12-14T00:30:25.762Z,-3.00
2022-12-14T00:32:55.540Z,-3.00
2022-12-14T00:35:25.045Z,-3.00
2022-12-14T00:37:53.511Z,-3.00
2022-12-14T00:40:21.757Z,-3.00
2022-12-14T00:42:49.867Z,-3.00
2022-12-14T00:45:18.087Z,-3.00
2022-12-14T00:47:46.153Z,-3.00
2022-12-14T00:50:15.660Z,-3.00
2022-12-14T00:52:43.722Z,-3.00
2022-12-14T00:55:11.984Z,-3.00
2022-12-14T00:57:40.044Z,-3.00
2022-12-14T01:00:09.465Z,-3.10
2022-12-14T01:02:37.579Z,-3.00
2022-12-14T01:05:06.464Z,-3.00
2022-12-14T01:07:35.907Z,-3.00
2022-12-14T01:10:03.987Z,-3.00
2022-12-14T01:12:32.094Z,-3.00
2022-12-14T01:15:00.258Z,-3.00
2022-12-14T01:17:28.417Z,-3.00
2022-12-14T01:19:56.525Z,-3.00
2022-12-14T01:22:24.686Z,-3.00
2022-12-14T01:24:54.155Z,-2.90
2022-12-14T01:27:22.242Z,-2.90
2022-12-14T01:29:50.347Z,-2.90
2022-12-14T01:32:18.381Z,-2.90
2022-12-14T01:34:46.613Z,-2.90
2022-12-14T01:37:14.718Z,-3.00
2022-12-14T01:39:42.859Z,-3.00
2022-12-14T01:42:14.326Z,-3.00
2022-12-14T01:44:55.949Z,-2.90
2022-12-14T01:47:32.204Z,-2.90
2022-12-14T01:50:07.131Z,-2.90
2022-12-14T01:52:40.076Z,-2.90
2022-12-14T01:55:14.621Z,-3.00
2022-12-14T01:57:47.340Z,-3.00
2022-12-14T02:00:16.953Z,-3.10
2022-12-14T02:02:52.462Z,-3.10
2022-12-14T02:05:24.173Z,-3.10
2022-12-14T02:07:55.113Z,-3.00
2022-12-14T02:10:26.257Z,-3.00
2022-12-14T02:13:01.767Z,-3.00
2022-12-14T02:15:30.300Z,-3.00
2022-12-14T02:17:58.711Z,-2.90
2022-12-14T02:20:34.269Z,-3.00
2022-12-14T02:23:34.209Z,-3.00
2022-12-14T02:26:27.894Z,-3.00
2022-12-14T02:29:25.972Z,-3.00
2022-12-14T02:32:01.999Z,-3.00
2022-12-14T02:34:42.890Z,-3.00
2022-12-14T02:37:18.110Z,-3.00
2022-12-14T02:39:59.101Z,-3.00
2022-12-14T02:42:40.130Z,-3.00
2022-12-14T02:45:14.281Z,-3.00
2022-12-14T02:47:54.370Z,-3.00
2022-12-14T02:50:26.269Z,-3.00
2022-12-14T02:53:03.366Z,-3.00
2022-12-14T02:55:34.967Z,-3.00
2022-12-14T02:58:06.960Z,-3.00
2022-12-14T03:00:38.504Z,-3.00
2022-12-14T03:03:07.587Z,-3.00
2022-12-14T03:05:36.517Z,-3.10
2022-12-14T03:08:07.525Z,-3.10
2022-12-14T03:10:43.295Z,-3.00
2022-12-14T03:13:17.633Z,-3.00
2022-12-14T03:15:53.652Z,-3.00
2022-12-14T03:18:24.988Z,-3.00
2022-12-14T03:20:57.176Z,-3.00
2022-12-14T03:23:30.493Z,-2.90
2022-12-14T03:26:04.335Z,-3.00
2022-12-14T03:28:36.292Z,-3.10
2022-12-14T03:31:09.132Z,-3.10
2022-12-14T03:33:39.064Z,-3.20
2022-12-14T03:36:14.019Z,-3.20
2022-12-14T03:38:45.227Z,-3.20
2022-12-14T03:41:23.977Z,-3.20
2022-12-14T03:44:09.392Z,-3.20
2022-12-14T03:46:45.285Z,-3.20
2022-12-14T03:49:19.698Z,-3.20
2022-12-14T03:51:59.025Z,-3.10
2022-12-14T03:54:39.240Z,-3.10
2022-12-14T03:57:15.506Z,-3.10
2022-12-14T03:59:50.705Z,-3.10
2022-12-14T04:02:27.823Z,-3.10
2022-12-14T04:05:01.669Z,-3.20
2022-12-14T04:07:39.190Z,-3.10
2022-12-14T04:10:32.847Z,-3.20
2022-12-14T04:13:22.792Z,-3.20
2022-12-14T04:16:10.799Z,-3.10
2022-12-14T04:19:00.568Z,-3.20
2022-12-14T04:21:37.326Z,-3.20
2022-12-14T04:24:28.376Z,-3.10
2022-12-14T04:27:01.046Z,-3.10
2022-12-14T04:29:50.808Z,-3.20
2022-12-14T04:32:22.961Z,-3.20
2022-12-14T04:34:58.535Z,-3.20
2022-12-14T04:37:28.955Z,-3.10
2022-12-14T04:40:00.386Z,-3.10
2022-12-14T04:42:32.389Z,-3.10
2022-12-14T04:45:05.590Z,-3.10
2022-12-14T04:47:37.629Z,-3.10
2022-12-14T04:50:11.115Z,-3.10
2022-12-14T04:52:46.679Z,-3.10
2022-12-14T04:55:23.649Z,-3.10
2022-12-14T04:57:57.860Z,-3.10
2022-12-14T05:00:27.668Z,-3.10
2022-12-14T05:03:17.870Z,-3.00
2022-12-14T05:05:59.978Z,-3.10
2022-12-14T05:08:51.449Z,-3.10
2022-12-14T05:14:20.868Z,-3.10
2022-12-14T05:16:49.604Z,-3.10
2022-12-14T05:19:18.047Z,-3.10
2022-12-14T05:21:50.317Z,-3.10
2022-12-14T05:24:18.775Z,-3.00
2022-12-14T05:26:47.145Z,-3.10
2022-12-14T05:29:15.422Z,-3.00
2022-12-14T05:31:49.595Z,-3.00
2022-12-14T05:34:18.573Z,-3.00
2022-12-14T05:36:48.543Z,-3.00
2022-12-14T05:39:17.597Z,-3.00
2022-12-14T05:41:45.770Z,-3.00
2022-12-14T05:44:13.954Z,-3.00
2022-12-14T05:46:42.054Z,-3.00
2022-12-14T05:49:10.699Z,-3.00
2022-12-14T05:51:39.008Z,-2.90
2022-12-14T05:54:08.571Z,-2.90
2022-12-14T05:56:36.670Z,-2.90
2022-12-14T05:59:04.813Z,-2.90
2022-12-14T06:01:32.994Z,-2.80
2022-12-14T06:04:01.132Z,-2.80
2022-12-14T06:06:29.268Z,-2.80
2022-12-14T06:08:57.345Z,-2.90
2022-12-14T06:11:26.856Z,-2.90
2022-12-14T06:13:54.908Z,-3.00
2022-12-14T06:16:24.666Z,-3.00
2022-12-14T06:18:55.091Z,-3.00
2022-12-14T06:21:25.705Z,-2.90
2022-12-14T06:23:53.820Z,-2.90
2022-12-14T06:26:22.387Z,-2.90
2022-12-14T06:28:51.980Z,-2.90
2022-12-14T06:31:22.861Z,-2.90
2022-12-14T06:33:51.405Z,-2.90
2022-12-14T06:36:22.337Z,-2.90
2022-12-14T06:38:50.680Z,-2.90
2022-12-14T06:41:19.348Z,-2.90
2022-12-14T06:43:49.445Z,-2.90
2022-12-14T06:46:21.696Z,-2.80
2022-12-14T06:48:51.543Z,-2.80
2022-12-14T06:51:20.159Z,-2.90
2022-12-14T06:53:50.962Z,-2.90
2022-12-14T06:56:20.276Z,-3.00
2022-12-14T06:58:48.794Z,-2.90
2022-12-14T07:01:20.601Z,-2.90
2022-12-14T07:03:49.856Z,-3.00
2022-12-14T07:06:18.287Z,-2.90
2022-12-14T07:08:46.835Z,-2.90
2022-12-14T07:11:16.836Z,-3.00
2022-12-14T07:13:45.315Z,-3.00
2022-12-14T07:16:21.658Z,-2.90
2022-12-14T07:18:50.220Z,-3.00
2022-12-14T07:21:20.711Z,-3.00
2022-12-14T07:23:51.758Z,-3.00
2022-12-14T07:26:21.849Z,-3.00
2022-12-14T07:28:50.383Z,-3.00
2022-12-14T07:31:21.899Z,-2.90
2022-12-14T07:33:50.858Z,-2.90
2022-12-14T07:36:21.378Z,-2.90
2022-12-14T07:38:50.897Z,-2.90
2022-12-14T07:41:23.073Z,-2.90
2022-12-14T07:43:52.224Z,-3.00
2022-12-14T07:46:23.496Z,-2.90
2022-12-14T07:48:55.799Z,-3.00
2022-12-14T07:51:25.894Z,-2.90
2022-12-14T07:53:54.719Z,-2.90
2022-12-14T07:56:25.703Z,-2.90
2022-12-14T07:58:55.560Z,-2.90
2022-12-14T08:01:26.945Z,-2.90
2022-12-14T08:03:57.250Z,-2.80
2022-12-14T08:06:28.173Z,-2.80
2022-12-14T08:08:57.482Z,-2.70
2022-12-14T08:11:26.651Z,-2.80
2022-12-14T08:13:55.518Z,-2.90
2022-12-14T08:16:26.137Z,-2.80
2022-12-14T08:18:55.608Z,-2.60
2022-12-14T08:21:25.153Z,-2.50
2022-12-14T08:23:54.543Z,-2.50
2022-12-14T08:26:24.017Z,-2.50
2022-12-14T08:28:54.813Z,-2.50
2022-12-14T08:31:27.844Z,-2.50
2022-12-14T08:33:56.508Z,-2.50
2022-12-14T08:36:26.855Z,-2.60
2022-12-14T08:38:56.088Z,-2.60
2022-12-14T08:41:25.052Z,-2.60
2022-12-14T08:43:54.227Z,-2.80
2022-12-14T08:46:24.651Z,-2.70
2022-12-14T08:48:55.119Z,-2.80
2022-12-14T08:51:24.883Z,-2.80
2022-12-14T08:53:53.792Z,-2.90
2022-12-14T08:56:24.496Z,-2.90
2022-12-14T08:58:52.760Z,-2.80
2022-12-14T09:01:25.761Z,-2.70
2022-12-14T09:04:05.080Z,-2.70
2022-12-14T09:06:35.557Z,-2.60
2022-12-14T09:09:03.877Z,-2.70
2022-12-14T09:11:31.957Z,-2.70
2022-12-14T09:14:00.145Z,-2.70
2022-12-14T09:16:28.432Z,-2.70
2022-12-14T09:18:56.789Z,-2.70
2022-12-14T09:21:26.282Z,-2.70
2022-12-14T09:23:59.322Z,-2.60
2022-12-14T09:26:28.249Z,-2.60
2022-12-14T09:28:58.169Z,-2.60
2022-12-14T09:31:27.943Z,-2.60
2022-12-14T09:33:56.882Z,-2.60
2022-12-14T09:36:29.364Z,-2.60
2022-12-14T09:38:58.056Z,-2.50
2022-12-14T09:41:38.531Z,-2.50
2022-12-14T09:44:18.714Z,-2.50
2022-12-14T09:46:57.182Z,-2.50
2022-12-14T09:49:30.017Z,-2.40
2022-12-14T09:52:02.434Z,-2.40
2022-12-14T09:54:34.272Z,-2.40
2022-12-14T09:57:06.823Z,-2.40
2022-12-14T09:59:35.919Z,-2.30
2022-12-14T10:02:33.566Z,-2.30
2022-12-14T10:05:21.283Z,-2.30
2022-12-14T10:08:01.534Z,-2.20
2022-12-14T10:10:37.962Z,-2.10
2022-12-14T10:13:16.640Z,-2.10
2022-12-14T10:15:57.224Z,-2.20
2022-12-14T10:18:59.709Z,-2.10
2022-12-14T10:21:43.806Z,-2.00
2022-12-14T10:24:21.498Z,-2.00
2022-12-14T10:26:53.144Z,-1.90
2022-12-14T10:29:28.835Z,-1.90
2022-12-14T10:32:06.366Z,-1.80
2022-12-14T10:34:35.874Z,-1.90
2022-12-14T10:37:13.699Z,-1.90
2022-12-14T10:39:52.217Z,-1.70
2022-12-14T10:42:30.593Z,-1.70
2022-12-14T10:45:39.195Z,-1.70
2022-12-14T10:48:02.866Z,-1.60
2022-12-14T10:50:50.779Z,-1.40
2022-12-14T10:53:24.624Z,-1.40
2022-12-14T10:55:59.632Z,-1.40
2022-12-14T10:58:28.285Z,-1.30
2022-12-14T11:00:56.749Z,-1.30
2022-12-14T11:03:25.087Z,-1.30
2022-12-14T11:05:59.972Z,-1.30
2022-12-14T11:08:49.688Z,-1.30
2022-12-14T11:11:22.574Z,-1.40
2022-12-14T11:13:52.918Z,-1.40
2022-12-14T11:16:33.669Z,-1.50
2022-12-14T11:19:06.139Z,-1.50
2022-12-14T11:21:36.565Z,-1.50
2022-12-14T11:24:06.353Z,-1.50
2022-12-14T11:26:39.030Z,-1.40
2022-12-14T11:29:16.951Z,-1.40
2022-12-14T11:31:47.679Z,-1.40
2022-12-14T11:34:26.870Z,-1.40
2022-12-14T11:36:55.008Z,-1.40
2022-12-14T11:39:25.482Z,-1.30
2022-12-14T11:42:03.832Z,-1.30
2022-12-14T11:44:34.274Z,-1.40
2022-12-14T11:47:07.020Z,-1.30
2022-12-14T11:49:36.919Z,-1.40
2022-12-14T11:52:11.837Z,-1.30
2022-12-14T11:54:41.912Z,-1.20
2022-12-14T11:57:22.361Z,-1.00
2022-12-14T11:59:54.294Z,-0.90
2022-12-14T12:02:28.514Z,-0.70
2022-12-14T12:05:01.627Z,-0.60
2022-12-14T12:07:33.876Z,-0.60
2022-12-14T12:10:04.782Z,-0.70
2022-12-14T12:12:34.405Z,-0.70
2022-12-14T12:15:03.523Z,-0.70
2022-12-14T12:17:44.421Z,-0.70
2022-12-14T12:20:31.648Z,-0.70
2022-12-14T12:23:08.968Z,-0.80
2022-12-14T12:25:39.753Z,-0.80
2022-12-14T12:28:16.956Z,-0.80
2022-12-14T12:30:50.231Z,-0.90
2022-12-14T12:33:28.754Z,-1.00
2022-12-14T12:36:00.078Z,-1.10
2022-12-14T12:38:54.974Z,-1.00
2022-12-14T12:41:30.616Z,-1.10
2022-12-14T12:44:07.673Z,-1.10
2022-12-14T12:47:14.998Z,-1.20
2022-12-14T12:49:34.086Z,-1.10
2022-12-14T12:52:05.854Z,-1.00
2022-12-14T12:54:37.281Z,-1.00
2022-12-14T12:57:08.250Z,-1.00
2022-12-14T12:59:41.831Z,-0.90
2022-12-14T13:02:21.448Z,-0.80
2022-12-14T13:04:53.231Z,-0.80
2022-12-14T13:07:29.468Z,-0.90
2022-12-14T13:10:05.906Z,-0.90
2022-12-14T13:12:38.844Z,-0.90
2022-12-14T13:15:19.349Z,-0.80
2022-12-14T13:17:52.154Z,-0.80
2022-12-14T13:20:25.012Z,-0.80
2022-12-14T13:22:53.725Z,-0.90
2022-12-14T13:25:26.549Z,-0.90
2022-12-14T13:28:16.915Z,-1.00
2022-12-14T13:30:57.129Z,-1.00
2022-12-14T13:33:55.790Z,-1.00
2022-12-14T13:36:51.853Z,-1.00
2022-12-14T13:39:40.853Z,-1.00
2022-12-14T13:42:16.656Z,-0.80
2022-12-14T13:44:57.955Z,-0.70
2022-12-14T13:47:32.131Z,-0.70
2022-12-14T13:52:57.714Z,-0.90
2022-12-14T13:55:33.985Z,-0.90
2022-12-14T13:58:11.208Z,-0.90
2022-12-14T14:00:57.770Z,-0.90
2022-12-14T14:03:48.843Z,-0.90
2022-12-14T14:06:23.466Z,-0.90
2022-12-14T14:08:53.007Z,-0.90
2022-12-14T14:11:47.146Z,-0.90
2022-12-14T14:14:26.456Z,-1.00
2022-12-14T14:16:58.202Z,-1.20
2022-12-14T14:19:29.651Z,-1.20
2022-12-14T14:22:23.493Z,-1.30
2022-12-14T14:24:56.233Z,-1.40
2022-12-14T14:27:27.242Z,-1.50
2022-12-14T14:29:56.475Z,-1.50
2022-12-14T14:32:38.322Z,-1.50
2022-12-14T14:35:10.259Z,-1.30
2022-12-14T14:37:40.509Z,-1.10
2022-12-14T14:40:38.214Z,-1.00
2022-12-14T14:43:23.228Z,-1.00
2022-12-14T14:45:54.184Z,-1.10
2022-12-14T14:48:29.448Z,-1.10
2022-12-14T14:51:09.225Z,-1.10
2022-12-14T14:53:37.820Z,-1.20
2022-12-14T14:56:39.953Z,-1.30
2022-12-14T14:59:37.140Z,-1.30
2022-12-14T15:02:30.098Z,-1.50
2022-12-14T15:05:17.556Z,-1.50
2022-12-14T15:07:48.679Z,-1.60
2022-12-14T15:10:25.751Z,-1.60
2022-12-14T15:12:56.138Z,-1.60
2022-12-14T15:15:32.164Z,-1.50
2022-12-14T15:18:15.619Z,-1.60
2022-12-14T15:20:50.595Z,-1.70
2022-12-14T15:23:20.316Z,-1.80
2022-12-14T15:25:57.958Z,-2.00
2022-12-14T15:28:28.141Z,-2.10
2022-12-14T15:30:58.736Z,-2.10
2022-12-14T15:33:31.354Z,-2.10
2022-12-14T15:36:04.505Z,-2.20
2022-12-14T15:38:35.811Z,-2.20
2022-12-14T15:41:06.234Z,-2.30
2022-12-14T15:43:34.908Z,-2.30
2022-12-14T15:46:03.601Z,-2.40
2022-12-14T15:48:34.453Z,-2.40
2022-12-14T15:51:05.385Z,-2.50
2022-12-14T15:53:38.535Z,-2.40
2022-12-14T15:56:19.099Z,-2.50
2022-12-14T15:58:47.547Z,-2.60
2022-12-14T16:01:22.995Z,-2.60
2022-12-14T16:03:54.664Z,-2.70
2022-12-14T16:06:25.783Z,-2.70
2022-12-14T16:08:59.834Z,-2.80
2022-12-14T16:11:34.465Z,-2.80
2022-12-14T16:14:06.578Z,-2.90
2022-12-14T16:16:34.933Z,-3.00
2022-12-14T16:19:25.982Z,-3.00
2022-12-14T16:22:19.564Z,-3.10
2022-12-14T16:25:21.452Z,-3.10
2022-12-14T16:27:52.159Z,-3.20
2022-12-14T16:30:26.514Z,-3.20
2022-12-14T16:33:07.569Z,-3.20
2022-12-14T16:35:38.579Z,-3.20
2022-12-14T16:38:08.524Z,-3.30
2022-12-14T16:40:40.070Z,-3.20
2022-12-14T16:43:25.330Z,-3.30
2022-12-14T16:46:25.715Z,-3.40
2022-12-14T16:49:23.287Z,-3.40
2022-12-14T16:52:07.407Z,-3.40
2022-12-14T16:54:36.610Z,-3.50
2022-12-14T16:57:07.875Z,-3.50
2022-12-14T16:59:41.352Z,-3.50
2022-12-14T17:02:27.704Z,-3.60
2022-12-14T17:04:57.337Z,-3.50
2022-12-14T17:07:28.572Z,-3.60
2022-12-14T17:09:57.048Z,-3.60
2022-12-14T17:12:27.716Z,-3.60
2022-12-14T17:14:55.833Z,-3.60
2022-12-14T17:17:32.058Z,-3.60
2022-12-14T17:20:00.477Z,-3.40
2022-12-14T17:22:31.435Z,-3.40
2022-12-14T17:25:02.547Z,-3.30
2022-12-14T17:27:33.208Z,-3.30
2022-12-14T17:30:01.551Z,-3.20
2022-12-14T17:32:31.434Z,-3.20
2022-12-14T17:35:00.354Z,-3.10
2022-12-14T17:37:32.582Z,-3.10
2022-12-14T17:40:05.223Z,-3.10
2022-12-14T17:42:35.066Z,-3.00
2022-12-14T17:45:03.570Z,-2.90
2022-12-14T17:47:31.800Z,-2.90
2022-12-14T17:49:59.969Z,-2.80
2022-12-14T17:52:31.926Z,-2.70
2022-12-14T17:55:00.618Z,-2.70
2022-12-14T17:57:28.822Z,-2.70
2022-12-14T18:00:12.188Z,-2.70
2022-12-14T18:02:41.126Z,-2.60
2022-12-14T18:05:17.978Z,-2.60
2022-12-14T18:07:46.269Z,-2.60
2022-12-14T18:10:19.537Z,-2.60
2022-12-14T18:12:47.989Z,-2.60
2022-12-14T18:15:22.971Z,-2.60
2022-12-14T18:17:51.783Z,-2.50
2022-12-14T18:20:20.594Z,-2.60
2022-12-14T18:22:50.113Z,-2.60
2022-12-14T18:25:30.374Z,-2.50
2022-12-14T18:27:59.289Z,-2.50
2022-12-14T18:30:33.399Z,-2.40
2022-12-14T18:33:07.715Z,-2.40
2022-12-14T18:35:37.180Z,-2.40
2022-12-14T18:38:05.440Z,-2.40
2022-12-14T18:40:33.678Z,-2.40
2022-12-14T18:43:01.989Z,-2.40
2022-12-14T18:45:34.182Z,-2.40
2022-12-14T18:48:02.800Z,-2.50
2022-12-14T18:50:31.326Z,-2.50
2022-12-14T18:52:59.625Z,-2.50
2022-12-14T18:55:29.445Z,-2.50
2022-12-14T18:58:00.716Z,-2.50
2022-12-14T19:00:32.662Z,-2.50
2022-12-14T19:03:03.193Z,-2.40
2022-12-14T19:05:32.341Z,-2.40
2022-12-14T19:08:01.502Z,-2.30
2022-12-14T19:10:32.126Z,-2.30
2022-12-14T19:13:00.687Z,-2.30
2022-12-14T19:15:32.291Z,-2.30
2022-12-14T19:18:00.883Z,-2.30
2022-12-14T19:20:30.486Z,-2.30
2022-12-14T19:22:58.609Z,-2.30
2022-12-14T19:25:26.742Z,-2.20
2022-12-14T19:28:30.287Z,-2.20
2022-12-14T19:30:46.362Z,-2.20
2022-12-14T19:33:14.844Z,-2.20
2022-12-14T19:35:43.609Z,-2.10
2022-12-14T19:38:14.721Z,-2.10
2022-12-14T19:40:46.104Z,-2.10
2022-12-14T19:43:14.322Z,-2.10
2022-12-14T19:45:42.760Z,-2.10
2022-12-14T19:48:13.432Z,-2.10
2022-12-14T19:50:41.807Z,-2.20
2022-12-14T19:53:10.034Z,-2.30
2022-12-14T19:55:38.131Z,-2.30
2022-12-14T19:58:06.393Z,-2.30
2022-12-14T20:00:34.557Z,-2.30
2022-12-14T20:03:02.829Z,-2.30
2022-12-14T20:05:32.473Z,-2.20
2022-12-14T20:08:00.643Z,-2.30
2022-12-14T20:10:28.721Z,-2.30
2022-12-14T20:12:56.814Z,-2.30
2022-12-14T20:15:24.894Z,-2.40
2022-12-14T20:17:53.027Z,-2.50
2022-12-14T20:20:22.968Z,-2.60
2022-12-14T20:22:52.567Z,-2.60
2022-12-14T20:25:20.655Z,-2.60
2022-12-14T20:27:48.791Z,-2.60
2022-12-14T20:30:16.974Z,-2.60
2022-12-14T20:32:45.203Z,-2.60
2022-12-14T20:35:18.797Z,-2.70
2022-12-14T20:37:46.971Z,-2.80
2022-12-14T20:40:16.564Z,-2.90
2022-12-14T20:42:44.904Z,-3.00
2022-12-14T20:45:13.038Z,-3.00
2022-12-14T20:47:41.074Z,-3.00
2022-12-14T20:50:09.356Z,-3.10
2022-12-14T20:52:38.296Z,-3.00
2022-12-14T20:55:06.914Z,-2.90
2022-12-14T20:57:36.430Z,-3.00
2022-12-14T21:00:06.183Z,-3.00
2022-12-14T21:02:34.432Z,-3.10
2022-12-14T21:05:02.682Z,-3.10
2022-12-14T21:07:32.685Z,-3.20
2022-12-14T21:10:00.814Z,-3.20
2022-12-14T21:12:27.951Z,-3.20
2022-12-14T21:14:59.453Z,-3.20
2022-12-14T21:17:29.036Z,-3.30
2022-12-14T21:19:58.788Z,-3.30
2022-12-14T21:22:28.899Z,-3.30
2022-12-14T21:25:06.113Z,-3.30
2022-12-14T21:27:38.279Z,-3.40
2022-12-14T21:30:10.692Z,-3.40
2022-12-14T21:32:39.513Z,-3.40
2022-12-14T21:35:08.437Z,-3.40
2022-12-14T21:37:38.247Z,-3.40
2022-12-14T21:40:08.396Z,-3.40
2022-12-14T21:42:35.518Z,-3.50
2022-12-14T21:45:04.949Z,-3.50
2022-12-14T21:47:35.206Z,-3.10
2022-12-14T21:50:03.337Z,-2.80
2022-12-14T21:52:31.527Z,-2.70
2022-12-14T21:54:59.951Z,-2.80
2022-12-14T21:57:49.774Z,-2.80
2022-12-14T22:00:19.941Z,-2.80
2022-12-14T22:02:49.469Z,-2.70
2022-12-14T22:05:17.860Z,-2.70
2022-12-14T22:07:46.771Z,-2.80
2022-12-14T22:10:16.749Z,-2.70
2022-12-14T22:12:48.158Z,-2.60
2022-12-14T22:15:16.411Z,-2.50
2022-12-14T22:17:44.498Z,-2.50
2022-12-14T22:20:15.067Z,-2.30
2022-12-14T22:22:43.182Z,-2.30
2022-12-14T22:25:11.517Z,-2.30
2022-12-14T22:27:39.664Z,-2.20
2022-12-14T22:30:09.414Z,-2.10
2022-12-14T22:32:37.535Z,-2.10
2022-12-14T22:35:06.705Z,-2.20
2022-12-14T22:37:36.367Z,-2.20
2022-12-14T22:40:04.636Z,-2.20
2022-12-14T22:42:32.760Z,-2.10
2022-12-14T22:45:00.867Z,-2.10
2022-12-14T22:47:29.874Z,-2.10
2022-12-14T22:49:57.940Z,-2.20
2022-12-14T22:52:26.131Z,-2.20
2022-12-14T22:54:56.115Z,-2.20
2022-12-14T22:57:24.799Z,-2.20
2022-12-14T22:59:56.780Z,-2.20
2022-12-14T23:02:25.185Z,-2.10
2022-12-14T23:04:53.470Z,-2.10
2022-12-14T23:07:21.627Z,-2.10
2022-12-14T23:10:07.394Z,-1.80
2022-12-14T23:12:54.163Z,-1.60
2022-12-14T23:15:39.914Z,-1.60
2022-12-14T23:18:26.610Z,-1.70
2022-12-14T23:21:12.410Z,-1.80
2022-12-14T23:23:58.950Z,-1.90
2022-12-14T23:26:44.601Z,-2.00
2022-12-14T23:29:32.348Z,-2.00
2022-12-14T23:32:18.447Z,-2.00
2022-12-14T23:35:04.152Z,-2.00
2022-12-14T23:37:49.531Z,-2.00
2022-12-14T23:40:34.976Z,-2.00
2022-12-14T23:43:27.333Z,-2.10
2022-12-14T23:46:14.284Z,-2.20
2022-12-14T23:48:59.697Z,-2.20
2022-12-14T23:51:45.363Z,-2.30
2022-12-14T23:54:31.262Z,-2.30
2022-12-14T23:57:16.778Z,-2.30
